sensor_id;sensor_type;location;lat;lon;timestamp;temperature;humidity
46816;DHT22;32787;53.316;8.670;2023-06-10T00:00:13;15.90;78.70
46816;DHT22;32787;53.316;8.670;2023-06-10T00:02:41;15.90;79.20
46816;DHT22;32787;53.316;8.670;2023-06-10T00:05:07;16.10;78.90
46816;DHT22;32787;53.316;8.670;2023-06-10T00:07:36;15.80;79.80
46816;DHT22;32787;53.316;8.670;2023-06-10T00:10:06;15.70;80.70
46816;DHT22;32787;53.316;8.670;2023-06-10T00:12:32;15.80;80.00
46816;DHT22;32787;53.316;8.670;2023-06-10T00:15:04;15.80;80.60
46816;DHT22;32787;53.316;8.670;2023-06-10T00:17:30;15.70;80.50
46816;DHT22;32787;53.316;8.670;2023-06-10T00:19:56;15.70;80.90
46816;DHT22;32787;53.316;8.670;2023-06-10T00:22:23;15.80;80.50
46816;DHT22;32787;53.316;8.670;2023-06-10T00:24:50;15.60;81.20
46816;DHT22;32787;53.316;8.670;2023-06-10T00:27:17;15.40;81.70
46816;DHT22;32787;53.316;8.670;2023-06-10T00:29:42;15.20;82.60
46816;DHT22;32787;53.316;8.670;2023-06-10T00:32:09;15.20;83.10
46816;DHT22;32787;53.316;8.670;2023-06-10T00:34:35;15.00;83.20
46816;DHT22;32787;53.316;8.670;2023-06-10T00:37:01;15.10;83.50
46816;DHT22;32787;53.316;8.670;2023-06-10T00:39:26;14.90;84.10
46816;DHT22;32787;53.316;8.670;2023-06-10T00:41:52;14.90;84.00
46816;DHT22;32787;53.316;8.670;2023-06-10T00:44:17;15.10;84.00
46816;DHT22;32787;53.316;8.670;2023-06-10T00:46:43;15.00;83.80
46816;DHT22;32787;53.316;8.670;2023-06-10T00:49:09;14.80;84.90
46816;DHT22;32787;53.316;8.670;2023-06-10T00:51:35;14.80;84.40
46816;DHT22;32787;53.316;8.670;2023-06-10T00:54:02;14.80;84.50
46816;DHT22;32787;53.316;8.670;2023-06-10T00:56:28;14.80;84.90
46816;DHT22;32787;53.316;8.670;2023-06-10T00:58:54;14.90;84.60
46816;DHT22;32787;53.316;8.670;2023-06-10T01:01:20;14.80;84.90
46816;DHT22;32787;53.316;8.670;2023-06-10T01:03:45;14.80;85.20
46816;DHT22;32787;53.316;8.670;2023-06-10T01:06:47;14.90;85.20
46816;DHT22;32787;53.316;8.670;2023-06-10T01:09:32;15.00;84.80
46816;DHT22;32787;53.316;8.670;2023-06-10T01:12:05;14.60;85.10
46816;DHT22;32787;53.316;8.670;2023-06-10T01:14:35;14.60;85.60
46816;DHT22;32787;53.316;8.670;2023-06-10T01:17:01;14.60;85.40
46816;DHT22;32787;53.316;8.670;2023-06-10T01:19:28;14.50;86.00
46816;DHT22;32787;53.316;8.670;2023-06-10T01:21:57;14.70;85.70
46816;DHT22;32787;53.316;8.670;2023-06-10T01:24:26;14.70;85.30
46816;DHT22;32787;53.316;8.670;2023-06-10T01:26:53;14.70;85.10
46816;DHT22;32787;53.316;8.670;2023-06-10T01:29:31;14.60;85.70
46816;DHT22;32787;53.316;8.670;2023-06-10T01:32:09;14.30;86.30
46816;DHT22;32787;53.316;8.670;2023-06-10T01:34:39;14.10;86.50
46816;DHT22;32787;53.316;8.670;2023-06-10T01:37:08;14.20;86.30
46816;DHT22;32787;53.316;8.670;2023-06-10T01:39:36;14.30;86.60
46816;DHT22;32787;53.316;8.670;2023-06-10T01:42:02;14.40;85.70
46816;DHT22;32787;53.316;8.670;2023-06-10T01:44:28;14.50;85.50
46816;DHT22;32787;53.316;8.670;2023-06-10T01:46:54;14.40;85.70
46816;DHT22;32787;53.316;8.670;2023-06-10T01:49:20;14.70;85.50
46816;DHT22;32787;53.316;8.670;2023-06-10T01:51:47;14.20;86.30
46816;DHT22;32787;53.316;8.670;2023-06-10T01:54:13;14.10;86.50
46816;DHT22;32787;53.316;8.670;2023-06-10T01:56:39;14.10;86.60
46816;DHT22;32787;53.316;8.670;2023-06-10T01:59:04;14.30;86.40
46816;DHT22;32787;53.316;8.670;2023-06-10T02:01:30;14.40;86.10
46816;DHT22;32787;53.316;8.670;2023-06-10T02:03:55;14.50;85.40
46816;DHT22;32787;53.316;8.670;2023-06-10T02:06:21;14.40;85.60
46816;DHT22;32787;53.316;8.670;2023-06-10T02:08:47;14.30;85.90
46816;DHT22;32787;53.316;8.670;2023-06-10T02:11:12;14.10;86.20
46816;DHT22;32787;53.316;8.670;2023-06-10T02:13:38;14.00;87.10
46816;DHT22;32787;53.316;8.670;2023-06-10T02:16:04;14.20;87.00
46816;DHT22;32787;53.316;8.670;2023-06-10T02:18:31;14.10;86.60
46816;DHT22;32787;53.316;8.670;2023-06-10T02:20:57;14.10;86.50
46816;DHT22;32787;53.316;8.670;2023-06-10T02:23:22;14.00;87.00
46816;DHT22;32787;53.316;8.670;2023-06-10T02:25:48;13.90;87.20
46816;DHT22;32787;53.316;8.670;2023-06-10T02:28:14;14.00;87.20
46816;DHT22;32787;53.316;8.670;2023-06-10T02:30:41;14.20;86.70
46816;DHT22;32787;53.316;8.670;2023-06-10T02:33:07;14.10;86.60
46816;DHT22;32787;53.316;8.670;2023-06-10T02:35:39;14.10;86.30
46816;DHT22;32787;53.316;8.670;2023-06-10T02:38:05;14.00;86.80
46816;DHT22;32787;53.316;8.670;2023-06-10T02:40:30;14.10;86.30
46816;DHT22;32787;53.316;8.670;2023-06-10T02:42:57;14.00;86.30
46816;DHT22;32787;53.316;8.670;2023-06-10T02:45:23;14.10;86.50
46816;DHT22;32787;53.316;8.670;2023-06-10T02:47:48;13.90;86.80
46816;DHT22;32787;53.316;8.670;2023-06-10T02:50:14;13.60;87.10
46816;DHT22;32787;53.316;8.670;2023-06-10T02:52:39;13.40;87.70
46816;DHT22;32787;53.316;8.670;2023-06-10T02:55:05;13.30;88.20
46816;DHT22;32787;53.316;8.670;2023-06-10T02:57:32;13.40;88.20
46816;DHT22;32787;53.316;8.670;2023-06-10T02:59:57;13.50;87.80
46816;DHT22;32787;53.316;8.670;2023-06-10T03:02:24;13.60;87.90
46816;DHT22;32787;53.316;8.670;2023-06-10T03:04:55;13.70;87.30
46816;DHT22;32787;53.316;8.670;2023-06-10T03:07:21;13.50;87.60
46816;DHT22;32787;53.316;8.670;2023-06-10T03:09:46;13.40;88.30
46816;DHT22;32787;53.316;8.670;2023-06-10T03:12:12;13.50;87.80
46816;DHT22;32787;53.316;8.670;2023-06-10T03:14:38;13.60;87.80
46816;DHT22;32787;53.316;8.670;2023-06-10T03:17:04;13.70;87.20
46816;DHT22;32787;53.316;8.670;2023-06-10T03:19:30;13.70;86.60
46816;DHT22;32787;53.316;8.670;2023-06-10T03:22:13;13.50;87.10
46816;DHT22;32787;53.316;8.670;2023-06-10T03:24:40;13.40;87.50
46816;DHT22;32787;53.316;8.670;2023-06-10T03:27:10;13.50;87.40
46816;DHT22;32787;53.316;8.670;2023-06-10T03:29:39;13.60;87.50
46816;DHT22;32787;53.316;8.670;2023-06-10T03:32:05;13.60;87.20
46816;DHT22;32787;53.316;8.670;2023-06-10T03:34:31;13.70;86.90
46816;DHT22;32787;53.316;8.670;2023-06-10T03:36:57;13.50;87.20
46816;DHT22;32787;53.316;8.670;2023-06-10T03:39:23;13.40;87.50
46816;DHT22;32787;53.316;8.670;2023-06-10T03:41:50;13.40;88.00
46816;DHT22;32787;53.316;8.670;2023-06-10T03:44:15;13.50;87.40
46816;DHT22;32787;53.316;8.670;2023-06-10T03:46:41;13.60;87.10
46816;DHT22;32787;53.316;8.670;2023-06-10T03:49:07;13.60;87.10
46816;DHT22;32787;53.316;8.670;2023-06-10T03:51:33;13.60;86.90
46816;DHT22;32787;53.316;8.670;2023-06-10T03:53:59;13.50;86.70
46816;DHT22;32787;53.316;8.670;2023-06-10T03:56:25;13.50;87.10
46816;DHT22;32787;53.316;8.670;2023-06-10T03:58:51;13.40;87.10
46816;DHT22;32787;53.316;8.670;2023-06-10T04:01:16;13.60;87.00
46816;DHT22;32787;53.316;8.670;2023-06-10T04:03:43;13.60;87.20
46816;DHT22;32787;53.316;8.670;2023-06-10T04:06:09;13.50;87.00
46816;DHT22;32787;53.316;8.670;2023-06-10T04:08:35;13.40;86.90
46816;DHT22;32787;53.316;8.670;2023-06-10T04:11:01;13.30;87.50
46816;DHT22;32787;53.316;8.670;2023-06-10T04:13:27;13.30;87.90
46816;DHT22;32787;53.316;8.670;2023-06-10T04:15:53;13.40;87.50
46816;DHT22;32787;53.316;8.670;2023-06-10T04:18:20;13.50;86.90
46816;DHT22;32787;53.316;8.670;2023-06-10T04:20:47;13.50;87.10
46816;DHT22;32787;53.316;8.670;2023-06-10T04:23:12;13.50;87.20
46816;DHT22;32787;53.316;8.670;2023-06-10T04:25:38;13.50;87.40
46816;DHT22;32787;53.316;8.670;2023-06-10T04:28:04;13.50;87.20
46816;DHT22;32787;53.316;8.670;2023-06-10T04:30:29;13.40;87.10
46816;DHT22;32787;53.316;8.670;2023-06-10T04:32:57;13.50;87.00
46816;DHT22;32787;53.316;8.670;2023-06-10T04:35:22;13.50;87.00
46816;DHT22;32787;53.316;8.670;2023-06-10T04:37:48;13.60;86.50
46816;DHT22;32787;53.316;8.670;2023-06-10T04:40:14;13.60;86.60
46816;DHT22;32787;53.316;8.670;2023-06-10T04:42:41;13.70;86.60
46816;DHT22;32787;53.316;8.670;2023-06-10T04:45:07;13.70;86.50
46816;DHT22;32787;53.316;8.670;2023-06-10T04:47:33;13.80;86.00
46816;DHT22;32787;53.316;8.670;2023-06-10T04:50:00;13.80;86.10
46816;DHT22;32787;53.316;8.670;2023-06-10T04:52:26;13.80;86.10
46816;DHT22;32787;53.316;8.670;2023-06-10T04:54:53;13.80;86.00
46816;DHT22;32787;53.316;8.670;2023-06-10T04:57:19;13.90;85.70
46816;DHT22;32787;53.316;8.670;2023-06-10T04:59:46;13.90;86.00
46816;DHT22;32787;53.316;8.670;2023-06-10T05:02:11;13.90;85.50
46816;DHT22;32787;53.316;8.670;2023-06-10T05:04:37;13.90;85.60
46816;DHT22;32787;53.316;8.670;2023-06-10T05:07:03;14.20;85.20
46816;DHT22;32787;53.316;8.670;2023-06-10T05:09:29;14.10;85.50
46816;DHT22;32787;53.316;8.670;2023-06-10T05:11:55;14.10;85.10
46816;DHT22;32787;53.316;8.670;2023-06-10T05:14:21;14.20;85.20
46816;DHT22;32787;53.316;8.670;2023-06-10T05:16:47;14.30;85.10
46816;DHT22;32787;53.316;8.670;2023-06-10T05:19:13;14.30;84.20
46816;DHT22;32787;53.316;8.670;2023-06-10T05:21:39;14.20;84.60
46816;DHT22;32787;53.316;8.670;2023-06-10T05:24:04;14.20;84.80
46816;DHT22;32787;53.316;8.670;2023-06-10T05:26:30;14.30;84.90
46816;DHT22;32787;53.316;8.670;2023-06-10T05:28:58;14.40;84.20
46816;DHT22;32787;53.316;8.670;2023-06-10T05:31:24;14.30;84.50
46816;DHT22;32787;53.316;8.670;2023-06-10T05:33:50;14.40;84.20
46816;DHT22;32787;53.316;8.670;2023-06-10T05:36:15;14.40;83.80
46816;DHT22;32787;53.316;8.670;2023-06-10T05:38:41;14.50;83.70
46816;DHT22;32787;53.316;8.670;2023-06-10T05:41:06;14.50;83.60
46816;DHT22;32787;53.316;8.670;2023-06-10T05:43:32;14.50;83.10
46816;DHT22;32787;53.316;8.670;2023-06-10T05:45:58;14.50;83.00
46816;DHT22;32787;53.316;8.670;2023-06-10T05:48:23;14.50;83.20
46816;DHT22;32787;53.316;8.670;2023-06-10T05:50:49;14.60;83.10
46816;DHT22;32787;53.316;8.670;2023-06-10T05:53:15;14.50;83.20
46816;DHT22;32787;53.316;8.670;2023-06-10T05:55:42;14.60;83.00
46816;DHT22;32787;53.316;8.670;2023-06-10T05:58:09;14.60;82.70
46816;DHT22;32787;53.316;8.670;2023-06-10T06:00:35;14.60;83.00
46816;DHT22;32787;53.316;8.670;2023-06-10T06:03:00;14.50;83.20
46816;DHT22;32787;53.316;8.670;2023-06-10T06:05:26;14.50;83.30
46816;DHT22;32787;53.316;8.670;2023-06-10T06:07:52;14.50;83.50
46816;DHT22;32787;53.316;8.670;2023-06-10T06:10:18;14.60;83.30
46816;DHT22;32787;53.316;8.670;2023-06-10T06:12:44;14.70;83.30
46816;DHT22;32787;53.316;8.670;2023-06-10T06:15:10;14.70;83.30
46816;DHT22;32787;53.316;8.670;2023-06-10T06:17:36;14.80;83.10
46816;DHT22;32787;53.316;8.670;2023-06-10T06:20:03;14.80;82.90
46816;DHT22;32787;53.316;8.670;2023-06-10T06:22:29;14.80;83.00
46816;DHT22;32787;53.316;8.670;2023-06-10T06:24:55;14.70;83.50
46816;DHT22;32787;53.316;8.670;2023-06-10T06:27:20;14.80;83.20
46816;DHT22;32787;53.316;8.670;2023-06-10T06:29:46;14.80;83.20
46816;DHT22;32787;53.316;8.670;2023-06-10T06:32:12;14.80;83.00
46816;DHT22;32787;53.316;8.670;2023-06-10T06:34:38;14.80;82.80
46816;DHT22;32787;53.316;8.670;2023-06-10T06:37:03;14.90;82.90
46816;DHT22;32787;53.316;8.670;2023-06-10T06:39:29;15.00;82.60
46816;DHT22;32787;53.316;8.670;2023-06-10T06:41:55;15.20;82.60
46816;DHT22;32787;53.316;8.670;2023-06-10T06:44:21;15.20;82.40
46816;DHT22;32787;53.316;8.670;2023-06-10T06:46:46;15.10;82.40
46816;DHT22;32787;53.316;8.670;2023-06-10T06:49:12;15.20;82.70
46816;DHT22;32787;53.316;8.670;2023-06-10T06:51:37;15.20;82.80
46816;DHT22;32787;53.316;8.670;2023-06-10T06:54:03;15.20;82.40
46816;DHT22;32787;53.316;8.670;2023-06-10T06:56:31;15.50;82.50
46816;DHT22;32787;53.316;8.670;2023-06-10T06:58:56;15.50;82.00
46816;DHT22;32787;53.316;8.670;2023-06-10T07:01:22;15.40;81.40
46816;DHT22;32787;53.316;8.670;2023-06-10T07:03:48;15.60;81.50
46816;DHT22;32787;53.316;8.670;2023-06-10T07:06:13;15.50;81.90
46816;DHT22;32787;53.316;8.670;2023-06-10T07:08:39;15.50;81.40
46816;DHT22;32787;53.316;8.670;2023-06-10T07:11:04;15.40;82.00
46816;DHT22;32787;53.316;8.670;2023-06-10T07:13:30;15.50;82.00
46816;DHT22;32787;53.316;8.670;2023-06-10T07:15:56;15.60;82.00
46816;DHT22;32787;53.316;8.670;2023-06-10T07:18:21;16.10;81.00
46816;DHT22;32787;53.316;8.670;2023-06-10T07:20:47;16.00;81.40
46816;DHT22;32787;53.316;8.670;2023-06-10T07:23:12;16.20;81.10
46816;DHT22;32787;53.316;8.670;2023-06-10T07:25:38;16.30;80.20
46816;DHT22;32787;53.316;8.670;2023-06-10T07:28:04;16.40;79.50
46816;DHT22;32787;53.316;8.670;2023-06-10T07:30:30;16.30;79.70
46816;DHT22;32787;53.316;8.670;2023-06-10T07:32:55;16.40;79.50
46816;DHT22;32787;53.316;8.670;2023-06-10T07:35:21;16.50;79.60
46816;DHT22;32787;53.316;8.670;2023-06-10T07:37:47;16.80;78.40
46816;DHT22;32787;53.316;8.670;2023-06-10T07:40:13;16.90;78.00
46816;DHT22;32787;53.316;8.670;2023-06-10T07:42:38;16.90;78.50
46816;DHT22;32787;53.316;8.670;2023-06-10T07:45:04;16.90;78.30
46816;DHT22;32787;53.316;8.670;2023-06-10T07:47:32;16.80;78.30
46816;DHT22;32787;53.316;8.670;2023-06-10T07:49:58;16.80;78.90
46816;DHT22;32787;53.316;8.670;2023-06-10T07:52:24;16.90;77.80
46816;DHT22;32787;53.316;8.670;2023-06-10T07:54:51;17.00;78.20
46816;DHT22;32787;53.316;8.670;2023-06-10T07:57:17;17.10;77.90
46816;DHT22;32787;53.316;8.670;2023-06-10T07:59:42;17.20;77.60
46816;DHT22;32787;53.316;8.670;2023-06-10T08:02:09;17.30;77.30
46816;DHT22;32787;53.316;8.670;2023-06-10T08:04:35;17.40;77.20
46816;DHT22;32787;53.316;8.670;2023-06-10T08:07:01;17.60;76.50
46816;DHT22;32787;53.316;8.670;2023-06-10T08:09:27;17.80;75.90
46816;DHT22;32787;53.316;8.670;2023-06-10T08:11:53;17.80;75.80
46816;DHT22;32787;53.316;8.670;2023-06-10T08:14:19;17.80;76.10
46816;DHT22;32787;53.316;8.670;2023-06-10T08:16:45;18.00;75.20
46816;DHT22;32787;53.316;8.670;2023-06-10T08:19:11;18.10;74.40
46816;DHT22;32787;53.316;8.670;2023-06-10T08:21:36;18.00;74.50
46816;DHT22;32787;53.316;8.670;2023-06-10T08:24:09;18.00;74.60
46816;DHT22;32787;53.316;8.670;2023-06-10T08:26:34;18.20;75.40
46816;DHT22;32787;53.316;8.670;2023-06-10T08:29:00;18.60;73.00
46816;DHT22;32787;53.316;8.670;2023-06-10T08:31:26;18.40;72.90
46816;DHT22;32787;53.316;8.670;2023-06-10T08:33:51;18.50;73.90
46816;DHT22;32787;53.316;8.670;2023-06-10T08:36:17;18.50;73.90
46816;DHT22;32787;53.316;8.670;2023-06-10T08:38:43;18.70;73.00
46816;DHT22;32787;53.316;8.670;2023-06-10T08:41:09;18.70;72.60
46816;DHT22;32787;53.316;8.670;2023-06-10T08:44:02;18.80;72.10
46816;DHT22;32787;53.316;8.670;2023-06-10T08:46:31;18.70;72.60
46816;DHT22;32787;53.316;8.670;2023-06-10T08:49:01;18.70;72.50
46816;DHT22;32787;53.316;8.670;2023-06-10T08:51:29;18.90;72.90
46816;DHT22;32787;53.316;8.670;2023-06-10T08:54:20;19.10;72.20
46816;DHT22;32787;53.316;8.670;2023-06-10T08:56:49;19.20;71.90
46816;DHT22;32787;53.316;8.670;2023-06-10T08:59:17;19.20;71.20
46816;DHT22;32787;53.316;8.670;2023-06-10T09:01:43;19.30;70.90
46816;DHT22;32787;53.316;8.670;2023-06-10T09:04:10;19.40;71.10
46816;DHT22;32787;53.316;8.670;2023-06-10T09:06:37;19.50;70.80
46816;DHT22;32787;53.316;8.670;2023-06-10T09:09:05;19.50;70.00
46816;DHT22;32787;53.316;8.670;2023-06-10T09:11:31;19.80;68.80
46816;DHT22;32787;53.316;8.670;2023-06-10T09:13:57;19.80;68.60
46816;DHT22;32787;53.316;8.670;2023-06-10T09:16:26;19.80;68.80
46816;DHT22;32787;53.316;8.670;2023-06-10T09:18:52;19.80;68.80
46816;DHT22;32787;53.316;8.670;2023-06-10T09:21:24;20.10;67.10
46816;DHT22;32787;53.316;8.670;2023-06-10T09:23:50;20.00;67.50
46816;DHT22;32787;53.316;8.670;2023-06-10T09:26:15;19.90;67.50
46816;DHT22;32787;53.316;8.670;2023-06-10T09:28:47;20.30;66.50
46816;DHT22;32787;53.316;8.670;2023-06-10T09:31:13;20.30;67.30
46816;DHT22;32787;53.316;8.670;2023-06-10T09:33:44;20.50;67.00
46816;DHT22;32787;53.316;8.670;2023-06-10T09:36:10;20.30;67.40
46816;DHT22;32787;53.316;8.670;2023-06-10T09:38:36;20.30;66.40
46816;DHT22;32787;53.316;8.670;2023-06-10T09:41:03;20.30;66.00
46816;DHT22;32787;53.316;8.670;2023-06-10T09:43:43;20.40;66.70
46816;DHT22;32787;53.316;8.670;2023-06-10T09:46:19;20.60;65.70
46816;DHT22;32787;53.316;8.670;2023-06-10T09:48:47;20.80;64.90
46816;DHT22;32787;53.316;8.670;2023-06-10T09:51:14;20.70;64.60
46816;DHT22;32787;53.316;8.670;2023-06-10T09:53:40;20.90;64.10
46816;DHT22;32787;53.316;8.670;2023-06-10T09:56:06;20.60;65.30
46816;DHT22;32787;53.316;8.670;2023-06-10T09:58:39;20.80;65.50
46816;DHT22;32787;53.316;8.670;2023-06-10T10:01:14;20.80;65.30
46816;DHT22;32787;53.316;8.670;2023-06-10T10:03:50;21.00;65.20
46816;DHT22;32787;53.316;8.670;2023-06-10T10:06:18;21.00;64.80
46816;DHT22;32787;53.316;8.670;2023-06-10T10:08:49;21.10;63.70
46816;DHT22;32787;53.316;8.670;2023-06-10T10:11:17;21.00;63.40
46816;DHT22;32787;53.316;8.670;2023-06-10T10:13:45;21.10;63.80
46816;DHT22;32787;53.316;8.670;2023-06-10T10:16:15;21.30;63.60
46816;DHT22;32787;53.316;8.670;2023-06-10T10:18:45;21.40;63.10
46816;DHT22;32787;53.316;8.670;2023-06-10T10:21:12;21.40;62.30
46816;DHT22;32787;53.316;8.670;2023-06-10T10:26:18;21.80;61.10
46816;DHT22;32787;53.316;8.670;2023-06-10T10:28:58;21.90;58.90
46816;DHT22;32787;53.316;8.670;2023-06-10T10:31:27;21.80;61.10
46816;DHT22;32787;53.316;8.670;2023-06-10T10:33:58;22.00;59.80
46816;DHT22;32787;53.316;8.670;2023-06-10T10:36:25;22.00;60.20
46816;DHT22;32787;53.316;8.670;2023-06-10T10:38:51;22.00;58.90
46816;DHT22;32787;53.316;8.670;2023-06-10T10:41:18;22.00;58.80
46816;DHT22;32787;53.316;8.670;2023-06-10T10:43:45;22.00;58.50
46816;DHT22;32787;53.316;8.670;2023-06-10T10:46:14;22.10;58.80
46816;DHT22;32787;53.316;8.670;2023-06-10T10:48:40;22.10;59.30
46816;DHT22;32787;53.316;8.670;2023-06-10T10:51:07;22.40;58.10
46816;DHT22;32787;53.316;8.670;2023-06-10T10:53:33;22.90;55.20
46816;DHT22;32787;53.316;8.670;2023-06-10T10:56:06;23.60;52.90
46816;DHT22;32787;53.316;8.670;2023-06-10T10:58:34;23.80;52.80
46816;DHT22;32787;53.316;8.670;2023-06-10T11:01:13;23.60;50.40
46816;DHT22;32787;53.316;8.670;2023-06-10T11:03:46;23.50;50.10
46816;DHT22;32787;53.316;8.670;2023-06-10T11:06:16;23.30;50.60
46816;DHT22;32787;53.316;8.670;2023-06-10T11:11:27;23.80;51.20
46816;DHT22;32787;53.316;8.670;2023-06-10T11:16:28;25.40;45.60
46816;DHT22;32787;53.316;8.670;2023-06-10T11:18:54;27.00;40.50
46816;DHT22;32787;53.316;8.670;2023-06-10T11:21:21;27.80;39.70
46816;DHT22;32787;53.316;8.670;2023-06-10T11:23:50;28.90;37.80
46816;DHT22;32787;53.316;8.670;2023-06-10T11:31:24;30.40;33.60
46816;DHT22;32787;53.316;8.670;2023-06-10T11:33:57;29.30;35.30
46816;DHT22;32787;53.316;8.670;2023-06-10T11:36:24;28.80;34.80
46816;DHT22;32787;53.316;8.670;2023-06-10T11:38:52;27.70;38.00
46816;DHT22;32787;53.316;8.670;2023-06-10T11:41:18;26.20;41.20
46816;DHT22;32787;53.316;8.670;2023-06-10T11:43:44;25.50;43.10
46816;DHT22;32787;53.316;8.670;2023-06-10T11:46:11;25.00;43.10
46816;DHT22;32787;53.316;8.670;2023-06-10T11:48:37;24.50;41.90
46816;DHT22;32787;53.316;8.670;2023-06-10T11:51:07;24.40;42.30
46816;DHT22;32787;53.316;8.670;2023-06-10T11:53:33;24.30;43.80
46816;DHT22;32787;53.316;8.670;2023-06-10T11:55:58;24.30;43.60
46816;DHT22;32787;53.316;8.670;2023-06-10T11:58:24;24.50;44.90
46816;DHT22;32787;53.316;8.670;2023-06-10T12:00:52;24.80;44.00
46816;DHT22;32787;53.316;8.670;2023-06-10T12:03:24;24.90;40.60
46816;DHT22;32787;53.316;8.670;2023-06-10T12:06:01;25.50;41.10
46816;DHT22;32787;53.316;8.670;2023-06-10T12:08:28;26.00;40.20
46816;DHT22;32787;53.316;8.670;2023-06-10T12:10:55;26.70;38.40
46816;DHT22;32787;53.316;8.670;2023-06-10T12:13:21;27.70;33.80
46816;DHT22;32787;53.316;8.670;2023-06-10T12:15:48;28.00;33.80
46816;DHT22;32787;53.316;8.670;2023-06-10T12:18:21;27.50;34.20
46816;DHT22;32787;53.316;8.670;2023-06-10T12:20:47;26.60;35.00
46816;DHT22;32787;53.316;8.670;2023-06-10T12:23:15;26.30;36.70
46816;DHT22;32787;53.316;8.670;2023-06-10T12:25:50;25.90;37.00
46816;DHT22;32787;53.316;8.670;2023-06-10T12:28:18;25.60;37.70
46816;DHT22;32787;53.316;8.670;2023-06-10T12:30:46;26.00;35.70
46816;DHT22;32787;53.316;8.670;2023-06-10T12:33:21;26.50;34.60
46816;DHT22;32787;53.316;8.670;2023-06-10T12:35:51;27.70;32.70
46816;DHT22;32787;53.316;8.670;2023-06-10T12:38:25;30.20;29.00
46816;DHT22;32787;53.316;8.670;2023-06-10T12:40:53;32.10;27.30
46816;DHT22;32787;53.316;8.670;2023-06-10T12:43:20;32.80;26.00
46816;DHT22;32787;53.316;8.670;2023-06-10T12:45:46;33.10;25.20
46816;DHT22;32787;53.316;8.670;2023-06-10T12:48:23;32.90;25.50
46816;DHT22;32787;53.316;8.670;2023-06-10T12:50:53;33.40;25.40
46816;DHT22;32787;53.316;8.670;2023-06-10T12:53:20;34.00;24.00
46816;DHT22;32787;53.316;8.670;2023-06-10T12:55:47;33.70;25.20
46816;DHT22;32787;53.316;8.670;2023-06-10T12:58:13;33.20;25.00
46816;DHT22;32787;53.316;8.670;2023-06-10T13:00:39;33.60;24.20
46816;DHT22;32787;53.316;8.670;2023-06-10T13:03:06;33.20;24.50
46816;DHT22;32787;53.316;8.670;2023-06-10T13:05:32;33.90;24.00
46816;DHT22;32787;53.316;8.670;2023-06-10T13:07:59;34.20;24.50
46816;DHT22;32787;53.316;8.670;2023-06-10T13:10:24;35.20;23.30
46816;DHT22;32787;53.316;8.670;2023-06-10T13:12:51;35.00;22.90
46816;DHT22;32787;53.316;8.670;2023-06-10T13:15:17;35.10;21.90
46816;DHT22;32787;53.316;8.670;2023-06-10T13:17:44;34.60;23.10
46816;DHT22;32787;53.316;8.670;2023-06-10T13:20:10;34.40;23.90
46816;DHT22;32787;53.316;8.670;2023-06-10T13:22:37;34.80;24.00
46816;DHT22;32787;53.316;8.670;2023-06-10T13:25:03;34.80;23.40
46816;DHT22;32787;53.316;8.670;2023-06-10T13:27:30;32.90;24.20
46816;DHT22;32787;53.316;8.670;2023-06-10T13:29:56;33.60;25.00
46816;DHT22;32787;53.316;8.670;2023-06-10T13:32:22;34.80;22.90
46816;DHT22;32787;53.316;8.670;2023-06-10T13:34:47;35.00;22.30
46816;DHT22;32787;53.316;8.670;2023-06-10T13:37:15;34.60;22.40
46816;DHT22;32787;53.316;8.670;2023-06-10T13:39:43;34.50;23.80
46816;DHT22;32787;53.316;8.670;2023-06-10T13:42:08;35.00;22.60
46816;DHT22;32787;53.316;8.670;2023-06-10T13:44:34;35.30;22.60
46816;DHT22;32787;53.316;8.670;2023-06-10T13:47:02;35.90;22.50
46816;DHT22;32787;53.316;8.670;2023-06-10T13:49:28;34.90;22.40
46816;DHT22;32787;53.316;8.670;2023-06-10T13:51:54;34.40;23.20
46816;DHT22;32787;53.316;8.670;2023-06-10T13:54:20;34.10;23.80
46816;DHT22;32787;53.316;8.670;2023-06-10T13:56:46;34.20;23.20
46816;DHT22;32787;53.316;8.670;2023-06-10T13:59:12;33.80;24.50
46816;DHT22;32787;53.316;8.670;2023-06-10T14:01:38;35.60;23.20
46816;DHT22;32787;53.316;8.670;2023-06-10T14:04:04;35.00;22.90
46816;DHT22;32787;53.316;8.670;2023-06-10T14:06:30;34.70;23.30
46816;DHT22;32787;53.316;8.670;2023-06-10T14:08:56;34.80;23.80
46816;DHT22;32787;53.316;8.670;2023-06-10T14:11:21;36.10;22.60
46816;DHT22;32787;53.316;8.670;2023-06-10T14:13:47;35.80;22.20
46816;DHT22;32787;53.316;8.670;2023-06-10T14:16:13;34.70;23.20
46816;DHT22;32787;53.316;8.670;2023-06-10T14:18:38;34.40;23.90
46816;DHT22;32787;53.316;8.670;2023-06-10T14:21:04;35.00;23.90
46816;DHT22;32787;53.316;8.670;2023-06-10T14:23:30;36.00;23.20
46816;DHT22;32787;53.316;8.670;2023-06-10T14:25:55;36.10;22.70
46816;DHT22;32787;53.316;8.670;2023-06-10T14:28:21;35.40;23.90
46816;DHT22;32787;53.316;8.670;2023-06-10T14:30:47;33.90;25.20
46816;DHT22;32787;53.316;8.670;2023-06-10T14:33:13;34.30;25.30
46816;DHT22;32787;53.316;8.670;2023-06-10T14:35:39;34.60;25.10
46816;DHT22;32787;53.316;8.670;2023-06-10T14:38:05;36.10;24.10
46816;DHT22;32787;53.316;8.670;2023-06-10T14:40:30;36.10;23.50
46816;DHT22;32787;53.316;8.670;2023-06-10T14:42:57;36.30;23.60
46816;DHT22;32787;53.316;8.670;2023-06-10T14:45:23;35.30;25.10
46816;DHT22;32787;53.316;8.670;2023-06-10T14:47:50;35.00;25.50
46816;DHT22;32787;53.316;8.670;2023-06-10T14:50:16;35.70;25.30
46816;DHT22;32787;53.316;8.670;2023-06-10T14:52:41;35.40;25.80
46816;DHT22;32787;53.316;8.670;2023-06-10T14:55:07;35.70;25.40
46816;DHT22;32787;53.316;8.670;2023-06-10T14:57:33;35.60;25.50
46816;DHT22;32787;53.316;8.670;2023-06-10T14:59:59;35.10;26.60
46816;DHT22;32787;53.316;8.670;2023-06-10T15:02:24;34.90;27.30
46816;DHT22;32787;53.316;8.670;2023-06-10T15:04:50;35.20;26.40
46816;DHT22;32787;53.316;8.670;2023-06-10T15:07:16;35.80;27.00
46816;DHT22;32787;53.316;8.670;2023-06-10T15:09:43;34.80;27.30
46816;DHT22;32787;53.316;8.670;2023-06-10T15:12:09;34.70;27.20
46816;DHT22;32787;53.316;8.670;2023-06-10T15:14:36;35.00;26.90
46816;DHT22;32787;53.316;8.670;2023-06-10T15:17:01;35.00;26.80
46816;DHT22;32787;53.316;8.670;2023-06-10T15:19:27;34.20;27.40
46816;DHT22;32787;53.316;8.670;2023-06-10T15:21:53;34.50;27.50
46816;DHT22;32787;53.316;8.670;2023-06-10T15:24:19;35.70;26.10
46816;DHT22;32787;53.316;8.670;2023-06-10T15:26:45;35.90;26.20
46816;DHT22;32787;53.316;8.670;2023-06-10T15:29:11;35.60;26.40
46816;DHT22;32787;53.316;8.670;2023-06-10T15:31:37;35.50;26.40
46816;DHT22;32787;53.316;8.670;2023-06-10T15:34:03;35.80;26.20
46816;DHT22;32787;53.316;8.670;2023-06-10T15:36:29;36.10;26.60
46816;DHT22;32787;53.316;8.670;2023-06-10T15:39:01;35.90;25.70
46816;DHT22;32787;53.316;8.670;2023-06-10T15:41:27;34.60;28.30